createdAt,value
2018-05-29T00:00:34.492Z,17.33
2018-05-29T00:01:34.430Z,17.26
2018-05-29T00:02:34.348Z,17.26
2018-05-29T00:03:34.284Z,17.14
2018-05-29T00:04:34.206Z,17.20
2018-05-29T00:05:34.142Z,17.20
2018-05-29T00:06:34.058Z,17.23
2018-05-29T00:07:33.999Z,17.15
2018-05-29T00:08:33.919Z,17.17
2018-05-29T00:09:33.850Z,17.17
2018-05-29T00:10:33.777Z,17.29
2018-05-29T00:11:33.712Z,17.36
2018-05-29T00:12:33.635Z,17.35
2018-05-29T00:13:33.572Z,17.43
2018-05-29T00:14:33.487Z,17.38
2018-05-29T00:15:33.430Z,17.44
2018-05-29T00:16:33.348Z,17.40
2018-05-29T00:17:33.282Z,17.36
2018-05-29T00:18:33.204Z,17.32
2018-05-29T00:19:33.141Z,17.35
2018-05-29T00:20:33.064Z,17.35
2018-05-29T00:21:32.996Z,17.40
2018-05-29T00:22:32.918Z,17.39
2018-05-29T00:23:32.852Z,17.55
2018-05-29T00:24:32.774Z,17.55
2018-05-29T00:25:32.714Z,17.51
2018-05-29T00:26:32.629Z,17.54
2018-05-29T00:27:32.565Z,17.48
2018-05-29T00:28:32.486Z,17.54
2018-05-29T00:29:32.428Z,17.48
2018-05-29T00:30:32.354Z,17.40
2018-05-29T00:31:32.280Z,17.40
2018-05-29T00:32:32.204Z,17.33
2018-05-29T00:33:32.135Z,17.36
2018-05-29T00:34:32.057Z,17.30
2018-05-29T00:35:31.993Z,17.18
2018-05-29T00:36:31.914Z,17.10
2018-05-29T00:37:31.854Z,16.93
2018-05-29T00:38:31.770Z,16.99
2018-05-29T00:39:31.704Z,16.90
2018-05-29T00:40:31.625Z,16.95
2018-05-29T00:41:31.562Z,16.98
2018-05-29T00:42:31.483Z,16.93
2018-05-29T00:43:31.420Z,17.03
2018-05-29T00:44:31.339Z,17.07
2018-05-29T00:45:31.277Z,17.10
2018-05-29T00:46:31.193Z,17.11
2018-05-29T00:47:31.133Z,17.10
2018-05-29T00:48:31.049Z,17.17
2018-05-29T00:49:30.987Z,17.15
2018-05-29T00:50:30.906Z,17.17
2018-05-29T00:51:30.849Z,17.15
2018-05-29T00:52:30.761Z,17.07
2018-05-29T00:53:30.706Z,17.15
2018-05-29T00:54:30.622Z,17.00
2018-05-29T00:55:30.559Z,16.92
2018-05-29T00:56:30.476Z,16.99
2018-05-29T00:57:30.413Z,16.95
2018-05-29T00:58:30.341Z,16.98
2018-05-29T00:59:30.268Z,17.02
2018-05-29T01:00:30.194Z,17.02
2018-05-29T01:01:30.125Z,17.13
2018-05-29T01:02:30.048Z,17.15
2018-05-29T01:03:29.983Z,17.10
2018-05-29T01:04:29.902Z,17.20
2018-05-29T01:05:29.839Z,17.08
2018-05-29T01:06:29.758Z,17.11
2018-05-29T01:07:29.690Z,17.14
2018-05-29T01:08:29.618Z,17.07
2018-05-29T01:09:29.547Z,17.08
2018-05-29T01:10:29.468Z,17.03
2018-05-29T01:11:29.399Z,17.07
2018-05-29T01:12:29.324Z,16.89
2018-05-29T01:13:30.264Z,16.92
2018-05-29T01:14:29.178Z,16.85
2018-05-29T01:15:29.115Z,16.82
2018-05-29T01:16:29.034Z,16.81
2018-05-29T01:17:28.975Z,16.75
2018-05-29T01:18:28.889Z,16.67
2018-05-29T01:19:28.827Z,16.67
2018-05-29T01:20:28.745Z,16.63
2018-05-29T01:21:28.683Z,16.66
2018-05-29T01:22:28.600Z,16.63
2018-05-29T01:23:28.537Z,16.65
2018-05-29T01:24:28.458Z,16.67
2018-05-29T01:25:28.392Z,16.70
2018-05-29T01:26:28.314Z,16.67
2018-05-29T01:27:28.248Z,16.73
2018-05-29T01:28:28.177Z,16.71
2018-05-29T01:29:28.105Z,16.67
2018-05-29T01:30:28.033Z,16.67
2018-05-29T01:31:27.966Z,16.73
2018-05-29T01:32:27.925Z,16.77
2018-05-29T01:33:27.815Z,16.74
2018-05-29T01:34:27.738Z,16.75
2018-05-29T01:35:27.671Z,16.78
2018-05-29T01:36:27.595Z,16.66
2018-05-29T01:37:27.528Z,16.63
2018-05-29T01:38:27.447Z,16.66
2018-05-29T01:39:27.380Z,16.56
2018-05-29T01:40:27.301Z,16.53
2018-05-29T01:41:27.244Z,16.47
2018-05-29T01:42:27.161Z,16.45
2018-05-29T01:43:27.093Z,16.35
2018-05-29T01:44:27.011Z,16.38
2018-05-29T01:45:26.948Z,16.40
2018-05-29T01:46:26.870Z,16.38
2018-05-29T01:47:26.805Z,16.33
2018-05-29T01:48:26.722Z,16.45
2018-05-29T01:49:26.659Z,16.30
2018-05-29T01:50:26.579Z,16.45
2018-05-29T01:51:26.513Z,16.44
2018-05-29T01:52:26.434Z,16.41
2018-05-29T01:53:26.369Z,16.48
2018-05-29T01:54:26.293Z,16.53
2018-05-29T01:55:26.223Z,16.53
2018-05-29T01:56:26.146Z,16.56
2018-05-29T01:57:26.080Z,16.59
2018-05-29T01:58:25.995Z,16.56
2018-05-29T01:59:25.934Z,16.66
2018-05-29T02:00:25.852Z,16.67
2018-05-29T02:01:25.788Z,16.65
2018-05-29T02:02:25.706Z,16.65
2018-05-29T02:03:25.641Z,16.60
2018-05-29T02:04:25.626Z,16.63
2018-05-29T02:05:25.500Z,16.59
2018-05-29T02:06:25.419Z,16.59
2018-05-29T02:07:25.354Z,16.55
2018-05-29T02:08:25.272Z,16.53
2018-05-29T02:09:25.213Z,16.52
2018-05-29T02:10:25.130Z,16.44
2018-05-29T02:11:25.062Z,16.38
2018-05-29T02:12:24.984Z,16.37
2018-05-29T02:13:24.917Z,16.29
2018-05-29T02:14:24.833Z,16.41
2018-05-29T02:15:24.773Z,16.29
2018-05-29T02:16:24.691Z,16.40
2018-05-29T02:17:24.628Z,16.37
2018-05-29T02:18:24.549Z,16.44
2018-05-29T02:19:24.481Z,16.42
2018-05-29T02:20:24.403Z,16.34
2018-05-29T02:21:24.337Z,16.45
2018-05-29T02:22:24.259Z,16.37
2018-05-29T02:23:24.193Z,16.35
2018-05-29T02:24:24.111Z,16.35
2018-05-29T02:25:24.047Z,16.34
2018-05-29T02:26:23.965Z,16.38
2018-05-29T02:27:23.899Z,16.30
2018-05-29T02:28:23.821Z,16.35
2018-05-29T02:29:23.756Z,16.29
2018-05-29T02:30:23.674Z,16.40
2018-05-29T02:31:23.613Z,16.40
2018-05-29T02:32:23.536Z,16.47
2018-05-29T02:33:23.466Z,16.41
2018-05-29T02:34:23.389Z,16.41
2018-05-29T02:35:23.319Z,16.40
2018-05-29T02:36:23.236Z,16.47
2018-05-29T02:37:23.174Z,16.44
2018-05-29T02:38:23.096Z,16.52
2018-05-29T02:39:23.029Z,16.48
2018-05-29T02:40:22.949Z,16.57
2018-05-29T02:41:22.886Z,16.52
2018-05-29T02:42:22.807Z,16.52
2018-05-29T02:43:22.739Z,16.50
2018-05-29T02:44:22.659Z,16.55
2018-05-29T02:45:22.600Z,16.52
2018-05-29T02:46:22.517Z,16.52
2018-05-29T02:47:22.451Z,16.44
2018-05-29T02:48:22.368Z,16.42
2018-05-29T02:49:22.300Z,16.40
2018-05-29T02:50:22.222Z,16.37
2018-05-29T02:51:22.161Z,16.30
2018-05-29T02:52:22.078Z,16.20
2018-05-29T02:53:22.018Z,16.18
2018-05-29T02:54:21.936Z,16.10
2018-05-29T02:55:21.867Z,16.16
2018-05-29T02:56:21.800Z,16.20
2018-05-29T02:57:21.717Z,16.18
2018-05-29T02:58:21.637Z,16.15
2018-05-29T02:59:21.580Z,16.15
2018-05-29T03:00:21.498Z,16.22
2018-05-29T03:01:21.428Z,16.20
2018-05-29T03:02:21.351Z,16.12
2018-05-29T03:03:21.279Z,16.08
2018-05-29T03:04:21.204Z,16.10
2018-05-29T03:05:21.139Z,16.07
2018-05-29T03:06:21.056Z,16.07
2018-05-29T03:07:20.992Z,15.88
2018-05-29T03:08:20.915Z,15.86
2018-05-29T03:09:20.850Z,15.83
2018-05-29T03:10:20.767Z,15.85
2018-05-29T03:11:20.706Z,15.68
2018-05-29T03:12:20.626Z,15.71
2018-05-29T03:13:20.558Z,15.79
2018-05-29T03:14:20.482Z,15.82
2018-05-29T03:15:20.405Z,15.85
2018-05-29T03:16:20.332Z,15.92
2018-05-29T03:17:20.254Z,15.89
2018-05-29T03:18:20.191Z,15.97
2018-05-29T03:19:20.112Z,16.07
2018-05-29T03:20:20.048Z,16.04
2018-05-29T03:21:19.971Z,16.03
2018-05-29T03:22:20.901Z,16.06
2018-05-29T03:23:19.827Z,16.07
2018-05-29T03:24:21.824Z,15.96
2018-05-29T03:25:19.672Z,15.92
2018-05-29T03:26:19.687Z,15.89
2018-05-29T03:27:19.526Z,16.00
2018-05-29T03:28:19.461Z,15.92
2018-05-29T03:29:19.381Z,15.89
2018-05-29T03:30:19.402Z,15.86
2018-05-29T03:31:19.236Z,15.86
2018-05-29T03:32:19.172Z,15.89
2018-05-29T03:33:19.089Z,15.85
2018-05-29T03:34:19.163Z,15.92
2018-05-29T03:35:18.943Z,15.89
2018-05-29T03:36:19.954Z,15.99
2018-05-29T03:37:18.805Z,15.97
2018-05-29T03:38:18.840Z,16.07
2018-05-29T03:39:18.654Z,16.01
2018-05-29T03:40:18.651Z,16.07
2018-05-29T03:41:18.508Z,16.08
2018-05-29T03:42:18.436Z,16.10
2018-05-29T03:43:18.363Z,16.10
2018-05-29T03:44:18.295Z,16.12
2018-05-29T03:45:18.216Z,16.06
2018-05-29T03:46:18.148Z,16.12
2018-05-29T03:47:18.070Z,16.08
2018-05-29T03:48:18.004Z,16.04
2018-05-29T03:49:17.921Z,16.04
2018-05-29T03:50:17.859Z,15.96
2018-05-29T03:51:17.807Z,15.85
2018-05-29T03:52:17.716Z,15.86
2018-05-29T03:53:17.635Z,15.91
2018-05-29T03:54:17.575Z,15.86
2018-05-29T03:55:17.487Z,15.89
2018-05-29T03:56:17.526Z,15.83
2018-05-29T03:57:17.341Z,15.96
2018-05-29T03:58:17.277Z,15.88
2018-05-29T03:59:17.193Z,15.89
2018-05-29T04:00:18.123Z,15.85
2018-05-29T04:01:17.074Z,15.96
2018-05-29T04:02:17.055Z,16.00
2018-05-29T04:03:16.900Z,16.00
2018-05-29T04:04:16.862Z,15.97
2018-05-29T04:05:16.752Z,16.07
2018-05-29T04:06:16.773Z,15.99
2018-05-29T04:07:16.605Z,16.00
2018-05-29T04:08:16.585Z,16.04
2018-05-29T04:09:16.462Z,16.06
2018-05-29T04:10:16.494Z,16.07
2018-05-29T04:11:16.311Z,16.07
2018-05-29T04:12:16.301Z,16.20
2018-05-29T04:13:16.168Z,16.25
2018-05-29T04:14:16.213Z,16.14
2018-05-29T04:15:16.025Z,16.20
2018-05-29T04:16:16.023Z,16.25
2018-05-29T04:17:15.884Z,16.33
2018-05-29T04:18:15.832Z,16.35
2018-05-29T04:19:15.728Z,16.34
2018-05-29T04:20:15.742Z,16.26
2018-05-29T04:21:15.584Z,16.30
2018-05-29T04:22:15.550Z,16.35
2018-05-29T04:23:15.435Z,16.38
2018-05-29T04:24:15.461Z,16.33
2018-05-29T04:25:15.297Z,16.38
2018-05-29T04:26:15.272Z,16.42
2018-05-29T04:27:15.145Z,16.47
2018-05-29T04:28:15.178Z,16.53
2018-05-29T04:29:15.000Z,16.53
2018-05-29T04:30:14.986Z,16.57
2018-05-29T04:31:14.859Z,16.53
2018-05-29T04:32:14.794Z,16.60
2018-05-29T04:33:14.706Z,16.57
2018-05-29T04:34:14.710Z,16.59
2018-05-29T04:35:14.560Z,16.60
2018-05-29T04:36:14.514Z,16.63
2018-05-29T04:37:14.413Z,16.70
2018-05-29T04:38:14.424Z,16.62
2018-05-29T04:39:14.264Z,16.70
2018-05-29T04:40:14.236Z,16.73
2018-05-29T04:41:14.131Z,16.75
2018-05-29T04:42:14.146Z,16.84
2018-05-29T04:43:13.980Z,16.88
2018-05-29T04:44:13.954Z,16.84
2018-05-29T04:45:13.830Z,16.90
2018-05-29T04:46:13.863Z,16.90
2018-05-29T04:47:13.691Z,16.95
2018-05-29T04:48:13.673Z,16.98
2018-05-29T04:49:13.542Z,17.05
2018-05-29T04:50:13.582Z,17.14
2018-05-29T04:51:13.398Z,17.15
2018-05-29T04:52:13.396Z,17.14
2018-05-29T04:53:13.254Z,17.17
2018-05-29T04:54:13.208Z,17.17
2018-05-29T04:55:13.107Z,17.29
2018-05-29T04:56:13.112Z,17.30
2018-05-29T04:57:12.958Z,17.29
2018-05-29T04:58:12.919Z,17.29
2018-05-29T04:59:12.810Z,17.33
2018-05-29T05:00:12.837Z,17.35
2018-05-29T05:01:12.664Z,17.43
2018-05-29T05:02:12.604Z,17.54
2018-05-29T05:03:12.519Z,17.48
2018-05-29T05:04:12.457Z,17.54
2018-05-29T05:05:12.378Z,17.53
2018-05-29T05:06:12.313Z,17.54
2018-05-29T05:07:12.231Z,17.70
2018-05-29T05:08:12.276Z,17.66
2018-05-29T05:09:12.088Z,17.64
2018-05-29T05:10:12.079Z,17.67
2018-05-29T05:11:11.940Z,17.70
2018-05-29T05:12:11.887Z,17.71
2018-05-29T05:13:11.796Z,17.79
2018-05-29T05:14:11.797Z,17.79
2018-05-29T05:15:11.654Z,17.79
2018-05-29T05:16:11.610Z,17.88
2018-05-29T05:17:11.514Z,17.98
2018-05-29T05:18:11.519Z,17.98
2018-05-29T05:19:11.360Z,17.92
2018-05-29T05:20:11.368Z,18.07
2018-05-29T05:21:11.218Z,18.11
2018-05-29T05:22:11.238Z,18.16
2018-05-29T05:23:11.074Z,18.21
2018-05-29T05:24:11.043Z,18.22
2018-05-29T05:25:10.926Z,18.21
2018-05-29T05:26:10.958Z,18.29
2018-05-29T05:27:10.780Z,18.40
2018-05-29T05:28:10.767Z,18.39
2018-05-29T05:29:10.642Z,18.46
2018-05-29T05:30:10.711Z,18.55
2018-05-29T05:31:10.500Z,18.57
2018-05-29T05:32:10.490Z,18.62
2018-05-29T05:33:10.353Z,18.62
2018-05-29T05:34:10.291Z,18.65
2018-05-29T05:35:10.206Z,18.68
2018-05-29T05:36:10.203Z,18.69
2018-05-29T05:37:10.068Z,18.77
2018-05-29T05:38:10.016Z,18.77
2018-05-29T05:39:09.920Z,18.86
2018-05-29T05:40:09.925Z,18.92
2018-05-29T05:41:09.779Z,18.99
2018-05-29T05:42:09.732Z,19.01
2018-05-29T05:43:09.628Z,19.15
2018-05-29T05:44:09.643Z,19.13
2018-05-29T05:45:09.984Z,19.25
2018-05-29T05:46:09.491Z,19.24
2018-05-29T05:47:09.344Z,19.20
2018-05-29T05:48:09.279Z,19.27
2018-05-29T05:49:09.199Z,19.31
2018-05-29T05:50:09.173Z,19.40
2018-05-29T05:51:09.053Z,19.43
2018-05-29T05:52:09.081Z,19.50
2018-05-29T05:53:08.917Z,19.48
2018-05-29T05:54:08.888Z,19.60
2018-05-29T05:55:08.766Z,19.71
2018-05-29T05:56:08.801Z,19.76
2018-05-29T05:57:08.625Z,19.75
2018-05-29T05:58:08.610Z,19.73
2018-05-29T05:59:08.482Z,19.91
2018-05-29T06:00:08.527Z,19.90
2018-05-29T06:01:08.349Z,19.94
2018-05-29T06:02:08.332Z,19.93
2018-05-29T06:03:08.198Z,20.12
2018-05-29T06:04:08.245Z,20.20
2018-05-29T06:05:08.062Z,20.31
2018-05-29T06:06:08.052Z,20.30
2018-05-29T06:07:07.914Z,20.26
2018-05-29T06:08:07.858Z,20.42
2018-05-29T06:09:07.774Z,20.56
2018-05-29T06:10:07.777Z,20.51
2018-05-29T06:11:07.628Z,20.62
2018-05-29T06:12:07.580Z,20.65
2018-05-29T06:13:07.487Z,20.79
2018-05-29T06:14:07.494Z,20.72
2018-05-29T06:15:07.348Z,20.89
2018-05-29T06:16:07.299Z,20.90
2018-05-29T06:17:07.204Z,21.02
2018-05-29T06:18:07.210Z,21.05
2018-05-29T06:19:07.061Z,20.96
2018-05-29T06:20:07.021Z,20.99
2018-05-29T06:21:06.920Z,21.06
2018-05-29T06:22:06.923Z,21.14
2018-05-29T06:23:06.780Z,21.06
2018-05-29T06:24:06.741Z,21.20
2018-05-29T06:25:06.641Z,21.08
2018-05-29T06:26:06.648Z,21.30
2018-05-29T06:27:06.495Z,21.17
2018-05-29T06:28:06.501Z,21.35
2018-05-29T06:29:06.355Z,21.26
2018-05-29T06:30:06.369Z,21.31
2018-05-29T06:31:06.215Z,21.39
2018-05-29T06:32:06.175Z,21.33
2018-05-29T06:33:06.074Z,21.30
2018-05-29T06:34:06.086Z,21.41
2018-05-29T06:35:05.932Z,21.39
2018-05-29T06:36:05.897Z,21.42
2018-05-29T06:37:05.792Z,21.53
2018-05-29T06:38:05.808Z,21.48
2018-05-29T06:39:05.651Z,21.60
2018-05-29T06:40:05.614Z,21.61
2018-05-29T06:41:05.511Z,21.66
2018-05-29T06:42:05.530Z,21.76
2018-05-29T06:43:05.371Z,21.79
2018-05-29T06:44:05.333Z,21.95
2018-05-29T06:45:05.341Z,22.01
2018-05-29T06:46:05.245Z,21.89
2018-05-29T06:47:05.090Z,22.08
2018-05-29T06:48:05.052Z,22.05
2018-05-29T06:49:04.950Z,22.04
2018-05-29T06:50:04.971Z,22.07
2018-05-29T06:51:04.812Z,22.16
2018-05-29T06:52:04.777Z,22.23
2018-05-29T06:53:04.673Z,22.20
2018-05-29T06:54:04.684Z,22.28
2018-05-29T06:55:04.535Z,22.26
2018-05-29T06:56:04.493Z,22.37
2018-05-29T06:57:04.402Z,22.39
2018-05-29T06:58:04.404Z,22.39
2018-05-29T06:59:04.255Z,22.46
2018-05-29T07:00:04.215Z,22.53
2018-05-29T07:01:04.122Z,22.59
2018-05-29T07:02:04.122Z,22.54
2018-05-29T07:03:03.983Z,22.74
2018-05-29T07:04:03.939Z,22.72
2018-05-29T07:05:03.836Z,22.77
2018-05-29T07:06:03.843Z,22.78
2018-05-29T07:07:03.715Z,22.75
2018-05-29T07:08:03.648Z,22.79
2018-05-29T07:09:03.561Z,22.77
2018-05-29T07:10:03.565Z,22.75
2018-05-29T07:11:03.424Z,22.81
2018-05-29T07:12:03.374Z,22.77
2018-05-29T07:13:03.287Z,22.89
2018-05-29T07:14:03.285Z,22.90
2018-05-29T07:15:03.144Z,23.04
2018-05-29T07:16:03.191Z,23.15
2018-05-29T07:17:03.008Z,23.20
2018-05-29T07:18:03.000Z,23.26
2018-05-29T07:19:02.868Z,23.42
2018-05-29T07:20:02.923Z,23.46
2018-05-29T07:21:02.733Z,23.53
2018-05-29T07:22:02.722Z,23.58
2018-05-29T07:23:02.599Z,23.68
2018-05-29T07:24:02.632Z,23.58
2018-05-29T07:25:02.457Z,23.56
2018-05-29T07:26:02.440Z,23.70
2018-05-29T07:27:02.322Z,23.72
2018-05-29T07:28:02.352Z,23.87
2018-05-29T07:29:02.186Z,23.90
2018-05-29T07:30:02.164Z,23.98
2018-05-29T07:31:02.051Z,23.93
2018-05-29T07:32:02.072Z,24.05
2018-05-29T07:33:01.915Z,24.15
2018-05-29T07:34:01.883Z,24.22
2018-05-29T07:35:01.772Z,24.32
2018-05-29T07:36:01.793Z,24.42
2018-05-29T07:37:01.640Z,24.52
2018-05-29T07:38:01.602Z,24.57
2018-05-29T07:39:01.508Z,24.60
2018-05-29T07:40:01.512Z,24.60
2018-05-29T07:41:01.370Z,24.69
2018-05-29T07:42:01.323Z,24.64
2018-05-29T07:43:01.235Z,24.76
2018-05-29T07:44:01.309Z,24.94
2018-05-29T07:45:01.107Z,25.04
2018-05-29T07:46:01.145Z,25.13
2018-05-29T07:47:00.963Z,25.16
2018-05-29T07:48:00.950Z,25.12
2018-05-29T07:49:00.827Z,25.12
2018-05-29T07:50:00.862Z,25.22
2018-05-29T07:51:00.693Z,25.25
2018-05-29T07:52:00.706Z,25.22
2018-05-29T07:53:00.558Z,25.22
2018-05-29T07:54:00.584Z,25.30
2018-05-29T07:55:00.430Z,25.27
2018-05-29T07:56:00.387Z,25.28
2018-05-29T07:57:00.294Z,25.46
2018-05-29T07:58:00.306Z,25.67
2018-05-29T07:59:00.160Z,25.68
2018-05-29T08:00:00.111Z,25.68
2018-05-29T08:01:00.028Z,25.84
2018-05-29T08:02:00.024Z,25.72
2018-05-29T08:02:59.892Z,25.83
2018-05-29T08:03:59.930Z,25.93
2018-05-29T08:04:59.765Z,25.82
2018-05-29T08:05:59.743Z,25.90
2018-05-29T08:06:59.626Z,25.93
2018-05-29T08:07:59.657Z,26.02
2018-05-29T08:08:59.491Z,25.96
2018-05-29T08:09:59.464Z,25.89
2018-05-29T08:10:59.361Z,25.79
2018-05-29T08:11:59.372Z,25.84
2018-05-29T08:12:59.230Z,25.89
2018-05-29T08:13:59.178Z,25.87
2018-05-29T08:14:59.095Z,25.90
2018-05-29T08:15:59.092Z,25.90
2018-05-29T08:16:58.960Z,25.90
2018-05-29T08:17:59.003Z,25.86
2018-05-29T08:18:58.829Z,25.89
2018-05-29T08:19:58.817Z,25.87
2018-05-29T08:20:58.699Z,25.70
2018-05-29T08:21:58.721Z,25.67
2018-05-29T08:22:58.565Z,25.78
2018-05-29T08:23:59.126Z,25.83
2018-05-29T08:24:58.433Z,25.92
2018-05-29T08:25:58.442Z,26.04
2018-05-29T08:26:58.301Z,26.18
2018-05-29T08:27:58.356Z,26.32
2018-05-29T08:28:58.169Z,26.47
2018-05-29T08:29:58.162Z,26.60
2018-05-29T08:30:58.045Z,26.77
2018-05-29T08:31:58.074Z,26.95
2018-05-29T08:32:57.906Z,27.07
2018-05-29T08:33:57.881Z,27.04
2018-05-29T08:34:57.772Z,27.20
2018-05-29T08:35:57.792Z,27.21
2018-05-29T08:36:57.648Z,27.19
2018-05-29T08:37:57.602Z,27.31
2018-05-29T08:38:57.511Z,27.04
2018-05-29T08:39:57.511Z,26.99
2018-05-29T08:40:57.384Z,26.99
2018-05-29T08:41:57.429Z,26.94
2018-05-29T08:42:57.252Z,26.77
2018-05-29T08:43:57.233Z,26.72
2018-05-29T08:44:57.127Z,26.87
2018-05-29T08:45:57.142Z,26.89
2018-05-29T08:46:56.991Z,26.87
2018-05-29T08:47:56.953Z,27.19
2018-05-29T08:48:56.865Z,27.20
2018-05-29T08:49:56.867Z,27.32
2018-05-29T08:50:56.739Z,27.51
2018-05-29T08:51:56.776Z,27.57
2018-05-29T08:52:56.604Z,27.74
2018-05-29T08:53:56.588Z,27.84
2018-05-29T08:54:56.478Z,27.94
2018-05-29T08:55:56.493Z,27.97
2018-05-29T08:56:56.346Z,28.09
2018-05-29T08:57:56.305Z,27.80
2018-05-29T08:58:56.700Z,27.60
2018-05-29T08:59:56.590Z,27.36
2018-05-29T09:00:56.514Z,27.58
2018-05-29T09:01:56.517Z,27.61
2018-05-29T09:02:55.961Z,27.57
2018-05-29T09:03:55.941Z,27.80
2018-05-29T09:04:55.837Z,27.80
2018-05-29T09:05:55.849Z,27.92
2018-05-29T09:06:55.706Z,28.13
2018-05-29T09:07:55.783Z,28.11
2018-05-29T09:08:55.578Z,28.31
2018-05-29T09:09:55.564Z,28.34
2018-05-29T09:10:55.446Z,28.38
2018-05-29T09:11:55.486Z,28.16
2018-05-29T09:12:55.324Z,27.98
2018-05-29T09:13:56.313Z,27.83
2018-05-29T09:14:55.196Z,27.77
2018-05-29T09:15:55.197Z,27.65
2018-05-29T09:16:55.067Z,27.65
2018-05-29T09:17:55.106Z,27.41
2018-05-29T09:18:54.939Z,27.42
2018-05-29T09:19:54.917Z,27.54
2018-05-29T09:20:54.816Z,27.61
2018-05-29T09:21:54.831Z,27.65
2018-05-29T09:22:54.686Z,27.76
2018-05-29T09:23:54.740Z,27.95
2018-05-29T09:24:54.558Z,27.98
2018-05-29T09:25:54.574Z,28.07
2018-05-29T09:26:54.431Z,27.97
2018-05-29T09:27:54.464Z,28.07
2018-05-29T09:28:54.302Z,28.20
2018-05-29T09:29:54.324Z,28.39
2018-05-29T09:30:54.180Z,28.35
2018-05-29T09:31:54.204Z,28.46
2018-05-29T09:32:54.052Z,28.57
2018-05-29T09:33:54.089Z,28.59
2018-05-29T09:34:53.924Z,28.65
2018-05-29T09:35:53.897Z,28.62
2018-05-29T09:36:53.800Z,28.62
2018-05-29T09:37:53.808Z,28.53
2018-05-29T09:38:53.673Z,28.54
2018-05-29T09:39:53.718Z,28.43
2018-05-29T09:40:53.547Z,28.47
2018-05-29T09:41:53.532Z,28.50
2018-05-29T09:42:53.425Z,28.51
2018-05-29T09:43:53.441Z,28.59
2018-05-29T09:44:53.294Z,28.71
2018-05-29T09:45:53.324Z,28.81
2018-05-29T09:46:53.166Z,28.94
2018-05-29T09:47:53.162Z,28.90
2018-05-29T09:48:53.041Z,28.88
2018-05-29T09:49:53.071Z,28.94
2018-05-29T09:50:52.921Z,28.62
2018-05-29T09:51:52.880Z,28.61
2018-05-29T09:52:52.844Z,28.57
2018-05-29T09:53:52.791Z,28.46
2018-05-29T09:54:52.664Z,28.54
2018-05-29T09:55:52.700Z,28.49
2018-05-29T09:56:52.540Z,28.54
2018-05-29T09:57:52.515Z,28.61
2018-05-29T09:58:52.415Z,28.63
2018-05-29T09:59:52.423Z,28.72
2018-05-29T10:00:52.287Z,28.94
2018-05-29T10:01:52.333Z,29.10
2018-05-29T10:02:52.168Z,29.25
2018-05-29T10:03:52.141Z,29.28
2018-05-29T10:04:52.041Z,29.36
2018-05-29T10:05:52.055Z,29.23
2018-05-29T10:06:51.951Z,29.01
2018-05-29T10:07:51.965Z,29.03
2018-05-29T10:08:51.787Z,29.01
2018-05-29T10:09:51.775Z,29.14
2018-05-29T10:10:51.662Z,29.03
2018-05-29T10:11:51.685Z,28.96
2018-05-29T10:12:51.541Z,28.93
2018-05-29T10:13:51.493Z,28.90
2018-05-29T10:14:51.412Z,28.86
2018-05-29T10:15:51.410Z,28.81
2018-05-29T10:16:51.286Z,28.78
2018-05-29T10:17:51.315Z,28.72
2018-05-29T10:18:51.164Z,28.72
2018-05-29T10:19:51.124Z,28.75
2018-05-29T10:20:51.041Z,28.63
2018-05-29T10:21:51.035Z,28.61
2018-05-29T10:22:50.914Z,28.61
2018-05-29T10:23:50.947Z,28.59
2018-05-29T10:24:50.787Z,28.63
2018-05-29T10:25:50.756Z,28.49
2018-05-29T10:26:50.665Z,28.29
2018-05-29T10:27:50.665Z,28.35
2018-05-29T10:28:50.538Z,28.39
2018-05-29T10:29:50.576Z,28.43
2018-05-29T10:30:50.456Z,28.44
2018-05-29T10:31:50.385Z,28.46
2018-05-29T10:32:50.291Z,28.46
2018-05-29T10:33:50.298Z,28.46
2018-05-29T10:34:50.173Z,28.46
2018-05-29T10:35:50.211Z,28.66
2018-05-29T10:36:51.010Z,28.63
2018-05-29T10:37:50.016Z,28.59
2018-05-29T10:38:49.918Z,28.75
2018-05-29T10:39:49.929Z,28.96
2018-05-29T10:40:49.789Z,29.06
2018-05-29T10:41:49.836Z,29.13
2018-05-29T10:42:49.666Z,29.28
2018-05-29T10:43:49.649Z,29.48
2018-05-29T10:44:49.545Z,29.44
2018-05-29T10:45:49.563Z,29.22
2018-05-29T10:46:49.427Z,29.21
2018-05-29T10:47:49.466Z,29.18
2018-05-29T10:48:49.299Z,29.14
2018-05-29T10:49:49.281Z,29.01
2018-05-29T10:50:49.171Z,29.16
2018-05-29T10:51:49.187Z,29.14
2018-05-29T10:52:49.060Z,29.23
2018-05-29T10:53:48.999Z,29.14
2018-05-29T10:54:48.915Z,29.22
2018-05-29T10:55:48.911Z,29.16
2018-05-29T10:56:48.789Z,29.10
2018-05-29T10:57:48.821Z,29.10
2018-05-29T10:58:48.682Z,29.06
2018-05-29T10:59:48.632Z,29.14
2018-05-29T11:00:48.546Z,29.21
2018-05-29T11:01:48.544Z,29.22
2018-05-29T11:02:48.425Z,28.98
2018-05-29T11:03:49.477Z,29.07
2018-05-29T11:04:48.298Z,29.03
2018-05-29T11:05:48.232Z,29.09
2018-05-29T11:06:53.225Z,29.16
2018-05-29T11:07:48.111Z,29.26
2018-05-29T11:08:50.126Z,29.16
2018-05-29T11:09:47.987Z,29.04
2018-05-29T11:10:47.993Z,28.93
2018-05-29T11:11:47.864Z,28.88
2018-05-29T11:12:47.906Z,28.93
2018-05-29T11:13:47.738Z,28.93
2018-05-29T11:14:53.750Z,29.01
2018-05-29T11:15:47.625Z,29.01
2018-05-29T11:16:47.620Z,28.90
2018-05-29T11:17:47.492Z,28.83
2018-05-29T11:18:47.530Z,28.69
2018-05-29T11:19:47.364Z,28.54
2018-05-29T11:20:47.340Z,28.51
2018-05-29T11:21:47.239Z,28.50
2018-05-29T11:22:47.250Z,28.57
2018-05-29T11:23:47.113Z,28.51
2018-05-29T11:24:47.162Z,28.59
2018-05-29T11:25:46.991Z,28.59
2018-05-29T11:26:46.971Z,28.62
2018-05-29T11:27:46.868Z,28.54
2018-05-29T11:28:46.882Z,28.49
2018-05-29T11:29:46.741Z,28.38
2018-05-29T11:30:46.691Z,28.32
2018-05-29T11:31:46.618Z,28.09
2018-05-29T11:32:46.601Z,27.84
2018-05-29T11:33:46.491Z,27.80
2018-05-29T11:34:46.509Z,27.80
2018-05-29T11:35:46.373Z,27.67
2018-05-29T11:36:46.422Z,27.64
2018-05-29T11:37:46.245Z,27.76
2018-05-29T11:38:46.234Z,27.80
2018-05-29T11:39:46.115Z,27.92
2018-05-29T11:40:46.145Z,27.99
2018-05-29T11:41:45.996Z,28.10
2018-05-29T11:42:45.952Z,28.11
2018-05-29T11:43:45.869Z,28.19
2018-05-29T11:44:45.862Z,28.17
2018-05-29T11:45:45.738Z,28.17
2018-05-29T11:46:45.774Z,28.24
2018-05-29T11:47:45.621Z,28.20
2018-05-29T11:48:45.584Z,28.26
2018-05-29T11:49:45.496Z,28.26
2018-05-29T11:50:45.502Z,28.20
2018-05-29T11:51:45.364Z,28.16
2018-05-29T11:52:45.406Z,28.24
2018-05-29T11:53:45.235Z,28.24
2018-05-29T11:54:45.214Z,28.28
2018-05-29T11:55:45.129Z,28.31
2018-05-29T11:56:45.126Z,28.39
2018-05-29T11:57:44.986Z,28.50
2018-05-29T11:58:45.037Z,28.51
2018-05-29T11:59:44.862Z,28.54
2018-05-29T12:00:44.842Z,28.65
2018-05-29T12:01:44.790Z,28.59
2018-05-29T12:02:44.756Z,28.71
2018-05-29T12:03:44.615Z,28.83
2018-05-29T12:04:44.667Z,29.00
2018-05-29T12:05:44.491Z,29.03
2018-05-29T12:06:44.473Z,29.14
2018-05-29T12:07:44.437Z,29.16
2018-05-29T12:08:44.386Z,29.25
2018-05-29T12:09:44.236Z,29.29
2018-05-29T12:10:44.193Z,29.23
2018-05-29T12:11:44.111Z,29.41
2018-05-29T12:12:44.108Z,29.43
2018-05-29T12:13:43.985Z,29.41
2018-05-29T12:14:44.016Z,29.68
2018-05-29T12:15:43.862Z,29.84
2018-05-29T12:16:43.829Z,30.02
2018-05-29T12:17:43.738Z,30.12
2018-05-29T12:18:43.741Z,30.24
2018-05-29T12:19:43.620Z,30.34
2018-05-29T12:20:43.644Z,30.43
2018-05-29T12:21:43.491Z,30.46
2018-05-29T12:22:43.457Z,30.46
2018-05-29T12:23:43.367Z,30.62
2018-05-29T12:24:43.370Z,30.74
2018-05-29T12:25:43.241Z,30.77
2018-05-29T12:26:43.280Z,30.89
2018-05-29T12:27:43.118Z,30.90
2018-05-29T12:28:43.088Z,31.05
2018-05-29T12:29:42.992Z,31.18
2018-05-29T12:30:43.002Z,31.24
2018-05-29T12:31:42.872Z,31.16
2018-05-29T12:32:42.909Z,30.90
2018-05-29T12:33:42.742Z,30.67
2018-05-29T12:34:42.717Z,30.55
2018-05-29T12:35:42.621Z,30.49
2018-05-29T12:36:42.624Z,30.37
2018-05-29T12:37:42.495Z,30.43
2018-05-29T12:38:42.538Z,30.48
2018-05-29T12:39:42.377Z,30.57
2018-05-29T12:40:42.350Z,30.74
2018-05-29T12:41:42.249Z,30.89
2018-05-29T12:42:42.261Z,30.81
2018-05-29T12:43:42.130Z,30.81
2018-05-29T12:44:42.175Z,30.85
2018-05-29T12:45:42.008Z,30.81
2018-05-29T12:46:41.982Z,30.97
2018-05-29T12:47:41.885Z,31.02
2018-05-29T12:48:41.890Z,31.20
2018-05-29T12:49:41.766Z,31.29
2018-05-29T12:50:41.806Z,31.31
2018-05-29T12:51:41.641Z,31.24